Kearsarge, New Hampshire
Current Conditions -  °F | °C
As of 7:01 AM on Sunday 25 Jan 2015 (Local Time) from KIZG Reporting Station
Overcast Overcast  
Wind Chill: 32°   Ceiling: 4600
Heat Index: 32°   Visibility: 10mi
Dew Point: 24°   Wind: 3mph
Humidity: 73%   Direction: NA
Pressure: 29.36"   Gusts: NA
Location:  44.08°N, 71.12°W
Report Text: KIZG 251201Z AUTO VRB03KT 10SM SCT030 SCT036 OVC046 00/M04 A2936 RMK AO2 T00001044
Loading
Personal Weather Stations






























Interactive Weather Map New forecast layout! Learn more

10-Day Weather Forecast

Advertisements
Track Severe Weather on mobile